sensor_id;sensor_type;location;lat;lon;timestamp;P1;durP1;ratioP1;P2;durP2;ratioP2
17921;SDS011;9086;50.966;3.144;2023-03-21T00:00:36;12.60;;;7.70;;
17921;SDS011;9086;50.966;3.144;2023-03-21T00:03:03;11.07;;;7.73;;
17921;SDS011;9086;50.966;3.144;2023-03-21T00:05:29;10.87;;;7.57;;
17921;SDS011;9086;50.966;3.144;2023-03-21T00:07:55;11.37;;;6.87;;
17921;SDS011;9086;50.966;3.144;2023-03-21T00:10:21;8.70;;;7.07;;
17921;SDS011;9086;50.966;3.144;2023-03-21T00:12:47;12.13;;;7.37;;
17921;SDS011;9086;50.966;3.144;2023-03-21T00:15:22;12.30;;;7.23;;
17921;SDS011;9086;50.966;3.144;2023-03-21T00:17:50;12.53;;;7.27;;
17921;SDS011;9086;50.966;3.144;2023-03-21T00:20:17;9.80;;;7.17;;
17921;SDS011;9086;50.966;3.144;2023-03-21T00:22:44;15.37;;;8.20;;
17921;SDS011;9086;50.966;3.144;2023-03-21T00:25:10;11.63;;;7.10;;
17921;SDS011;9086;50.966;3.144;2023-03-21T00:27:36;9.93;;;7.03;;
17921;SDS011;9086;50.966;3.144;2023-03-21T00:30:03;11.60;;;7.47;;
17921;SDS011;9086;50.966;3.144;2023-03-21T00:32:30;9.50;;;7.43;;
17921;SDS011;9086;50.966;3.144;2023-03-21T00:34:56;9.80;;;6.93;;
17921;SDS011;9086;50.966;3.144;2023-03-21T00:37:22;14.03;;;8.07;;
17921;SDS011;9086;50.966;3.144;2023-03-21T00:39:48;11.40;;;7.73;;
17921;SDS011;9086;50.966;3.144;2023-03-21T00:42:14;14.93;;;8.77;;
17921;SDS011;9086;50.966;3.144;2023-03-21T00:44:41;14.60;;;8.80;;
17921;SDS011;9086;50.966;3.144;2023-03-21T00:47:09;13.27;;;8.13;;
17921;SDS011;9086;50.966;3.144;2023-03-21T00:49:35;11.97;;;7.77;;
17921;SDS011;9086;50.966;3.144;2023-03-21T00:52:03;11.00;;;8.30;;
17921;SDS011;9086;50.966;3.144;2023-03-21T00:54:31;17.53;;;8.53;;
17921;SDS011;9086;50.966;3.144;2023-03-21T00:56:57;16.30;;;8.73;;
17921;SDS011;9086;50.966;3.144;2023-03-21T00:59:23;12.27;;;7.57;;
17921;SDS011;9086;50.966;3.144;2023-03-21T01:01:49;12.00;;;7.93;;
17921;SDS011;9086;50.966;3.144;2023-03-21T01:04:17;13.37;;;7.60;;
17921;SDS011;9086;50.966;3.144;2023-03-21T01:06:45;12.30;;;8.77;;
17921;SDS011;9086;50.966;3.144;2023-03-21T01:09:13;9.67;;;8.40;;
17921;SDS011;9086;50.966;3.144;2023-03-21T01:11:39;14.07;;;9.13;;
17921;SDS011;9086;50.966;3.144;2023-03-21T01:14:06;13.90;;;8.80;;
17921;SDS011;9086;50.966;3.144;2023-03-21T01:16:32;15.73;;;9.13;;
17921;SDS011;9086;50.966;3.144;2023-03-21T01:18:58;12.07;;;8.70;;
17921;SDS011;9086;50.966;3.144;2023-03-21T01:21:24;12.63;;;8.90;;
17921;SDS011;9086;50.966;3.144;2023-03-21T01:23:50;14.20;;;9.13;;
17921;SDS011;9086;50.966;3.144;2023-03-21T01:26:16;12.23;;;8.40;;
17921;SDS011;9086;50.966;3.144;2023-03-21T01:28:42;11.57;;;8.43;;
17921;SDS011;9086;50.966;3.144;2023-03-21T01:31:10;13.10;;;8.10;;
17921;SDS011;9086;50.966;3.144;2023-03-21T01:33:38;14.00;;;8.37;;
17921;SDS011;9086;50.966;3.144;2023-03-21T01:36:05;15.10;;;9.77;;
17921;SDS011;9086;50.966;3.144;2023-03-21T01:38:33;13.90;;;9.13;;
17921;SDS011;9086;50.966;3.144;2023-03-21T01:41:02;12.63;;;7.67;;
17921;SDS011;9086;50.966;3.144;2023-03-21T01:46:38;14.13;;;9.23;;
17921;SDS011;9086;50.966;3.144;2023-03-21T01:48:45;14.43;;;9.00;;
17921;SDS011;9086;50.966;3.144;2023-03-21T01:51:13;12.13;;;7.90;;
17921;SDS011;9086;50.966;3.144;2023-03-21T01:53:40;11.50;;;8.03;;
17921;SDS011;9086;50.966;3.144;2023-03-21T01:56:17;16.47;;;8.57;;
17921;SDS011;9086;50.966;3.144;2023-03-21T01:58:44;10.40;;;7.83;;
17921;SDS011;9086;50.966;3.144;2023-03-21T02:01:11;12.47;;;8.00;;
17921;SDS011;9086;50.966;3.144;2023-03-21T02:03:38;14.33;;;8.43;;
17921;SDS011;9086;50.966;3.144;2023-03-21T02:06:14;13.53;;;6.93;;
17921;SDS011;9086;50.966;3.144;2023-03-21T02:08:41;11.80;;;7.63;;
17921;SDS011;9086;50.966;3.144;2023-03-21T02:11:07;11.40;;;7.33;;
17921;SDS011;9086;50.966;3.144;2023-03-21T02:13:36;11.07;;;7.97;;
17921;SDS011;9086;50.966;3.144;2023-03-21T02:16:13;9.17;;;6.97;;
17921;SDS011;9086;50.966;3.144;2023-03-21T02:24:07;12.40;;;7.17;;
17921;SDS011;9086;50.966;3.144;2023-03-21T02:37:31;10.53;;;7.50;;
17921;SDS011;9086;50.966;3.144;2023-03-21T02:40:01;12.63;;;6.70;;
17921;SDS011;9086;50.966;3.144;2023-03-21T02:43:09;14.43;;;6.97;;
17921;SDS011;9086;50.966;3.144;2023-03-21T02:45:29;12.80;;;6.00;;
17921;SDS011;9086;50.966;3.144;2023-03-21T02:47:59;10.07;;;7.20;;
17921;SDS011;9086;50.966;3.144;2023-03-21T02:52:54;10.40;;;6.17;;
17921;SDS011;9086;50.966;3.144;2023-03-21T02:55:23;10.90;;;6.50;;
17921;SDS011;9086;50.966;3.144;2023-03-21T02:57:50;12.87;;;6.90;;
17921;SDS011;9086;50.966;3.144;2023-03-21T03:00:18;13.90;;;6.47;;
17921;SDS011;9086;50.966;3.144;2023-03-21T03:02:45;14.90;;;7.27;;
17921;SDS011;9086;50.966;3.144;2023-03-21T03:05:12;13.30;;;6.93;;
17921;SDS011;9086;50.966;3.144;2023-03-21T03:07:40;9.27;;;6.50;;
17921;SDS011;9086;50.966;3.144;2023-03-21T03:10:14;11.97;;;6.77;;
17921;SDS011;9086;50.966;3.144;2023-03-21T03:22:41;10.43;;;5.93;;
17921;SDS011;9086;50.966;3.144;2023-03-21T03:25:08;11.37;;;6.20;;
17921;SDS011;9086;50.966;3.144;2023-03-21T03:27:38;11.87;;;5.70;;
17921;SDS011;9086;50.966;3.144;2023-03-21T03:30:05;9.37;;;5.97;;
17921;SDS011;9086;50.966;3.144;2023-03-21T03:35:01;10.70;;;6.33;;
17921;SDS011;9086;50.966;3.144;2023-03-21T03:37:28;11.90;;;5.93;;
17921;SDS011;9086;50.966;3.144;2023-03-21T03:39:57;10.30;;;5.83;;
17921;SDS011;9086;50.966;3.144;2023-03-21T03:42:29;11.47;;;5.50;;
17921;SDS011;9086;50.966;3.144;2023-03-21T03:44:56;11.97;;;6.47;;
17921;SDS011;9086;50.966;3.144;2023-03-21T03:47:24;11.97;;;5.60;;
17921;SDS011;9086;50.966;3.144;2023-03-21T03:50:36;13.03;;;6.13;;
17921;SDS011;9086;50.966;3.144;2023-03-21T03:52:45;13.57;;;6.57;;
17921;SDS011;9086;50.966;3.144;2023-03-21T03:55:13;9.37;;;4.80;;
17921;SDS011;9086;50.966;3.144;2023-03-21T03:57:41;10.00;;;5.17;;
17921;SDS011;9086;50.966;3.144;2023-03-21T04:00:09;8.37;;;5.00;;
17921;SDS011;9086;50.966;3.144;2023-03-21T04:02:36;10.83;;;4.77;;
17921;SDS011;9086;50.966;3.144;2023-03-21T04:05:02;9.57;;;4.97;;
17921;SDS011;9086;50.966;3.144;2023-03-21T04:07:29;10.73;;;5.93;;
17921;SDS011;9086;50.966;3.144;2023-03-21T04:09:55;13.20;;;6.20;;
17921;SDS011;9086;50.966;3.144;2023-03-21T04:12:22;10.03;;;6.40;;
17921;SDS011;9086;50.966;3.144;2023-03-21T04:14:48;8.80;;;6.03;;
17921;SDS011;9086;50.966;3.144;2023-03-21T04:17:14;13.37;;;5.50;;
17921;SDS011;9086;50.966;3.144;2023-03-21T04:19:40;8.27;;;5.27;;
17921;SDS011;9086;50.966;3.144;2023-03-21T04:22:07;8.50;;;5.00;;
17921;SDS011;9086;50.966;3.144;2023-03-21T04:24:33;7.70;;;4.67;;
17921;SDS011;9086;50.966;3.144;2023-03-21T04:27:01;7.40;;;4.77;;
17921;SDS011;9086;50.966;3.144;2023-03-21T04:29:29;7.67;;;4.97;;
17921;SDS011;9086;50.966;3.144;2023-03-21T04:31:55;9.00;;;4.57;;
17921;SDS011;9086;50.966;3.144;2023-03-21T04:34:21;9.67;;;4.47;;
17921;SDS011;9086;50.966;3.144;2023-03-21T04:36:48;11.87;;;4.57;;
17921;SDS011;9086;50.966;3.144;2023-03-21T04:39:15;12.30;;;5.53;;
17921;SDS011;9086;50.966;3.144;2023-03-21T04:41:42;6.33;;;4.50;;
17921;SDS011;9086;50.966;3.144;2023-03-21T04:44:08;7.27;;;4.50;;
17921;SDS011;9086;50.966;3.144;2023-03-21T04:46:35;9.23;;;4.63;;
17921;SDS011;9086;50.966;3.144;2023-03-21T04:49:02;9.80;;;4.83;;
17921;SDS011;9086;50.966;3.144;2023-03-21T04:51:29;9.77;;;4.87;;
17921;SDS011;9086;50.966;3.144;2023-03-21T04:53:55;9.17;;;5.73;;
17921;SDS011;9086;50.966;3.144;2023-03-21T04:56:25;9.73;;;5.77;;
17921;SDS011;9086;50.966;3.144;2023-03-21T04:58:56;9.20;;;5.70;;
17921;SDS011;9086;50.966;3.144;2023-03-21T05:01:22;10.07;;;6.27;;
17921;SDS011;9086;50.966;3.144;2023-03-21T05:03:49;11.33;;;6.10;;
17921;SDS011;9086;50.966;3.144;2023-03-21T05:06:15;12.30;;;6.50;;
17921;SDS011;9086;50.966;3.144;2023-03-21T05:08:41;8.57;;;6.70;;
17921;SDS011;9086;50.966;3.144;2023-03-21T05:11:07;12.33;;;6.43;;
17921;SDS011;9086;50.966;3.144;2023-03-21T05:13:33;12.90;;;6.67;;
17921;SDS011;9086;50.966;3.144;2023-03-21T05:15:59;13.03;;;6.77;;
17921;SDS011;9086;50.966;3.144;2023-03-21T05:18:25;9.80;;;6.33;;
17921;SDS011;9086;50.966;3.144;2023-03-21T05:20:52;8.27;;;6.27;;
17921;SDS011;9086;50.966;3.144;2023-03-21T05:23:22;11.97;;;6.53;;
17921;SDS011;9086;50.966;3.144;2023-03-21T05:25:49;11.87;;;6.60;;
17921;SDS011;9086;50.966;3.144;2023-03-21T05:28:15;12.37;;;6.67;;
17921;SDS011;9086;50.966;3.144;2023-03-21T05:30:42;13.13;;;7.17;;
17921;SDS011;9086;50.966;3.144;2023-03-21T05:33:09;12.30;;;7.50;;
17921;SDS011;9086;50.966;3.144;2023-03-21T05:35:35;12.77;;;7.50;;
17921;SDS011;9086;50.966;3.144;2023-03-21T05:38:01;10.73;;;6.80;;
17921;SDS011;9086;50.966;3.144;2023-03-21T05:40:27;11.27;;;7.60;;
17921;SDS011;9086;50.966;3.144;2023-03-21T05:42:53;13.57;;;7.57;;
17921;SDS011;9086;50.966;3.144;2023-03-21T05:45:19;14.10;;;7.27;;
17921;SDS011;9086;50.966;3.144;2023-03-21T05:47:45;13.87;;;7.77;;
17921;SDS011;9086;50.966;3.144;2023-03-21T05:50:11;12.93;;;8.13;;
17921;SDS011;9086;50.966;3.144;2023-03-21T05:52:38;13.63;;;8.20;;
17921;SDS011;9086;50.966;3.144;2023-03-21T05:55:04;15.37;;;8.97;;
17921;SDS011;9086;50.966;3.144;2023-03-21T05:57:31;11.90;;;8.37;;
17921;SDS011;9086;50.966;3.144;2023-03-21T05:59:59;14.20;;;8.80;;
17921;SDS011;9086;50.966;3.144;2023-03-21T06:02:25;16.63;;;8.30;;
17921;SDS011;9086;50.966;3.144;2023-03-21T06:04:51;12.40;;;8.73;;
17921;SDS011;9086;50.966;3.144;2023-03-21T06:07:17;13.97;;;9.03;;
17921;SDS011;9086;50.966;3.144;2023-03-21T06:09:43;15.73;;;9.17;;
17921;SDS011;9086;50.966;3.144;2023-03-21T06:12:09;14.47;;;9.33;;
17921;SDS011;9086;50.966;3.144;2023-03-21T06:14:36;12.53;;;9.33;;
17921;SDS011;9086;50.966;3.144;2023-03-21T06:17:02;15.33;;;9.43;;
17921;SDS011;9086;50.966;3.144;2023-03-21T06:19:28;19.23;;;9.47;;
17921;SDS011;9086;50.966;3.144;2023-03-21T06:21:54;16.90;;;9.23;;
17921;SDS011;9086;50.966;3.144;2023-03-21T06:24:23;12.37;;;9.57;;
17921;SDS011;9086;50.966;3.144;2023-03-21T06:26:51;16.23;;;9.87;;
17921;SDS011;9086;50.966;3.144;2023-03-21T06:29:17;15.80;;;9.97;;
17921;SDS011;9086;50.966;3.144;2023-03-21T06:31:43;14.80;;;9.60;;
17921;SDS011;9086;50.966;3.144;2023-03-21T06:34:09;15.67;;;9.33;;
17921;SDS011;9086;50.966;3.144;2023-03-21T06:36:35;13.17;;;9.37;;
17921;SDS011;9086;50.966;3.144;2023-03-21T06:39:02;20.37;;;10.03;;
17921;SDS011;9086;50.966;3.144;2023-03-21T06:41:28;14.70;;;9.30;;
17921;SDS011;9086;50.966;3.144;2023-03-21T06:43:54;15.67;;;9.83;;
17921;SDS011;9086;50.966;3.144;2023-03-21T06:46:20;17.73;;;8.80;;
17921;SDS011;9086;50.966;3.144;2023-03-21T06:48:46;15.17;;;8.67;;
17921;SDS011;9086;50.966;3.144;2023-03-21T06:51:12;15.87;;;9.37;;
17921;SDS011;9086;50.966;3.144;2023-03-21T06:53:39;13.43;;;9.10;;
17921;SDS011;9086;50.966;3.144;2023-03-21T06:56:06;12.17;;;9.43;;
17921;SDS011;9086;50.966;3.144;2023-03-21T06:58:32;11.97;;;8.30;;
17921;SDS011;9086;50.966;3.144;2023-03-21T07:00:58;14.10;;;10.03;;
17921;SDS011;9086;50.966;3.144;2023-03-21T07:03:25;14.37;;;9.50;;
17921;SDS011;9086;50.966;3.144;2023-03-21T07:05:51;17.37;;;9.27;;
17921;SDS011;9086;50.966;3.144;2023-03-21T07:08:17;18.57;;;10.23;;
17921;SDS011;9086;50.966;3.144;2023-03-21T07:10:44;12.83;;;8.70;;
17921;SDS011;9086;50.966;3.144;2023-03-21T07:13:10;15.17;;;9.63;;
17921;SDS011;9086;50.966;3.144;2023-03-21T07:15:39;11.70;;;9.40;;
17921;SDS011;9086;50.966;3.144;2023-03-21T07:18:06;15.93;;;9.93;;
17921;SDS011;9086;50.966;3.144;2023-03-21T07:20:33;13.73;;;10.10;;
17921;SDS011;9086;50.966;3.144;2023-03-21T07:22:59;14.77;;;8.90;;
17921;SDS011;9086;50.966;3.144;2023-03-21T07:25:26;14.33;;;8.97;;
17921;SDS011;9086;50.966;3.144;2023-03-21T07:27:52;14.73;;;8.70;;
17921;SDS011;9086;50.966;3.144;2023-03-21T07:30:18;13.03;;;9.70;;
17921;SDS011;9086;50.966;3.144;2023-03-21T07:32:45;14.13;;;9.90;;
17921;SDS011;9086;50.966;3.144;2023-03-21T07:35:12;15.30;;;10.17;;
17921;SDS011;9086;50.966;3.144;2023-03-21T07:37:38;15.73;;;9.07;;
17921;SDS011;9086;50.966;3.144;2023-03-21T07:40:05;14.63;;;8.47;;
17921;SDS011;9086;50.966;3.144;2023-03-21T07:42:34;13.47;;;8.87;;
17921;SDS011;9086;50.966;3.144;2023-03-21T07:45:01;14.57;;;9.27;;
17921;SDS011;9086;50.966;3.144;2023-03-21T07:47:29;15.57;;;8.47;;
17921;SDS011;9086;50.966;3.144;2023-03-21T07:49:55;12.93;;;8.33;;
17921;SDS011;9086;50.966;3.144;2023-03-21T07:52:20;16.13;;;8.83;;
17921;SDS011;9086;50.966;3.144;2023-03-21T07:54:46;12.63;;;8.60;;
17921;SDS011;9086;50.966;3.144;2023-03-21T07:57:12;15.80;;;7.77;;
17921;SDS011;9086;50.966;3.144;2023-03-21T07:59:38;12.77;;;7.70;;
17921;SDS011;9086;50.966;3.144;2023-03-21T08:02:04;9.87;;;6.97;;
17921;SDS011;9086;50.966;3.144;2023-03-21T08:04:31;13.17;;;7.70;;
17921;SDS011;9086;50.966;3.144;2023-03-21T08:06:59;9.70;;;7.43;;
17921;SDS011;9086;50.966;3.144;2023-03-21T08:09:25;10.23;;;7.87;;
17921;SDS011;9086;50.966;3.144;2023-03-21T08:11:51;10.13;;;7.50;;
17921;SDS011;9086;50.966;3.144;2023-03-21T08:14:17;13.80;;;7.80;;
17921;SDS011;9086;50.966;3.144;2023-03-21T08:16:43;14.10;;;7.73;;
17921;SDS011;9086;50.966;3.144;2023-03-21T08:19:09;10.83;;;7.27;;
17921;SDS011;9086;50.966;3.144;2023-03-21T08:21:35;11.10;;;7.00;;
17921;SDS011;9086;50.966;3.144;2023-03-21T08:24:04;12.03;;;7.07;;
17921;SDS011;9086;50.966;3.144;2023-03-21T08:26:31;11.87;;;7.73;;
17921;SDS011;9086;50.966;3.144;2023-03-21T08:28:57;11.60;;;7.30;;
17921;SDS011;9086;50.966;3.144;2023-03-21T08:31:23;9.40;;;7.13;;
17921;SDS011;9086;50.966;3.144;2023-03-21T08:33:49;11.20;;;7.33;;
17921;SDS011;9086;50.966;3.144;2023-03-21T08:36:18;10.47;;;7.20;;
17921;SDS011;9086;50.966;3.144;2023-03-21T08:38:44;10.93;;;7.10;;
17921;SDS011;9086;50.966;3.144;2023-03-21T08:41:12;12.53;;;6.47;;
17921;SDS011;9086;50.966;3.144;2023-03-21T08:43:38;9.87;;;6.33;;
17921;SDS011;9086;50.966;3.144;2023-03-21T08:46:04;11.03;;;7.43;;
17921;SDS011;9086;50.966;3.144;2023-03-21T08:48:30;10.07;;;6.33;;
17921;SDS011;9086;50.966;3.144;2023-03-21T08:50:58;13.90;;;7.93;;
17921;SDS011;9086;50.966;3.144;2023-03-21T08:53:24;9.87;;;6.37;;
17921;SDS011;9086;50.966;3.144;2023-03-21T08:55:50;14.23;;;6.77;;
17921;SDS011;9086;50.966;3.144;2023-03-21T08:58:16;9.90;;;6.13;;
17921;SDS011;9086;50.966;3.144;2023-03-21T09:00:42;9.97;;;6.20;;
17921;SDS011;9086;50.966;3.144;2023-03-21T09:03:08;8.70;;;5.63;;
17921;SDS011;9086;50.966;3.144;2023-03-21T09:05:34;10.17;;;6.07;;
17921;SDS011;9086;50.966;3.144;2023-03-21T09:08:01;9.63;;;6.13;;
17921;SDS011;9086;50.966;3.144;2023-03-21T09:10:27;10.53;;;5.50;;
17921;SDS011;9086;50.966;3.144;2023-03-21T09:12:53;9.90;;;5.77;;
17921;SDS011;9086;50.966;3.144;2023-03-21T09:15:20;11.27;;;4.93;;
17921;SDS011;9086;50.966;3.144;2023-03-21T09:17:48;9.63;;;5.73;;
17921;SDS011;9086;50.966;3.144;2023-03-21T09:20:16;8.97;;;5.53;;
17921;SDS011;9086;50.966;3.144;2023-03-21T09:22:45;13.17;;;6.50;;
17921;SDS011;9086;50.966;3.144;2023-03-21T09:25:12;8.27;;;5.20;;
17921;SDS011;9086;50.966;3.144;2023-03-21T09:27:39;10.30;;;4.87;;
17921;SDS011;9086;50.966;3.144;2023-03-21T09:30:08;6.77;;;5.30;;
17921;SDS011;9086;50.966;3.144;2023-03-21T09:32:36;11.63;;;5.67;;
17921;SDS011;9086;50.966;3.144;2023-03-21T09:35:02;11.43;;;6.27;;
17921;SDS011;9086;50.966;3.144;2023-03-21T09:37:29;10.07;;;5.20;;
17921;SDS011;9086;50.966;3.144;2023-03-21T09:39:57;9.57;;;5.07;;
17921;SDS011;9086;50.966;3.144;2023-03-21T09:42:41;11.57;;;6.07;;
17921;SDS011;9086;50.966;3.144;2023-03-21T09:47:41;7.40;;;5.77;;
17921;SDS011;9086;50.966;3.144;2023-03-21T09:50:18;11.97;;;5.73;;
17921;SDS011;9086;50.966;3.144;2023-03-21T09:55:25;7.60;;;5.33;;
17921;SDS011;9086;50.966;3.144;2023-03-21T10:00:24;8.90;;;5.13;;
17921;SDS011;9086;50.966;3.144;2023-03-21T10:02:51;5.97;;;4.30;;
17921;SDS011;9086;50.966;3.144;2023-03-21T10:05:24;7.07;;;5.03;;
17921;SDS011;9086;50.966;3.144;2023-03-21T10:07:53;7.40;;;4.47;;
17921;SDS011;9086;50.966;3.144;2023-03-21T10:10:22;5.20;;;3.80;;
17921;SDS011;9086;50.966;3.144;2023-03-21T10:12:51;9.57;;;4.80;;
17921;SDS011;9086;50.966;3.144;2023-03-21T10:15:21;9.07;;;4.07;;
17921;SDS011;9086;50.966;3.144;2023-03-21T10:17:49;5.90;;;3.90;;
17921;SDS011;9086;50.966;3.144;2023-03-21T10:20:24;8.97;;;4.00;;
17921;SDS011;9086;50.966;3.144;2023-03-21T10:22:51;7.83;;;4.10;;
17921;SDS011;9086;50.966;3.144;2023-03-21T10:25:23;5.40;;;3.47;;
17921;SDS011;9086;50.966;3.144;2023-03-21T10:27:52;7.20;;;3.87;;
17921;SDS011;9086;50.966;3.144;2023-03-21T10:30:34;5.50;;;4.17;;
17921;SDS011;9086;50.966;3.144;2023-03-21T10:33:02;6.43;;;4.37;;
17921;SDS011;9086;50.966;3.144;2023-03-21T10:35:30;7.50;;;3.53;;
17921;SDS011;9086;50.966;3.144;2023-03-21T10:37:58;8.20;;;4.17;;
17921;SDS011;9086;50.966;3.144;2023-03-21T10:40:25;6.57;;;3.57;;
17921;SDS011;9086;50.966;3.144;2023-03-21T10:42:53;6.17;;;3.50;;
17921;SDS011;9086;50.966;3.144;2023-03-21T10:45:19;7.43;;;4.13;;
17921;SDS011;9086;50.966;3.144;2023-03-21T10:47:47;7.03;;;3.93;;
17921;SDS011;9086;50.966;3.144;2023-03-21T10:50:15;5.67;;;3.60;;
17921;SDS011;9086;50.966;3.144;2023-03-21T10:52:49;6.87;;;4.60;;
17921;SDS011;9086;50.966;3.144;2023-03-21T10:55:20;5.23;;;3.47;;
17921;SDS011;9086;50.966;3.144;2023-03-21T10:57:47;6.40;;;4.00;;
17921;SDS011;9086;50.966;3.144;2023-03-21T11:00:17;8.43;;;4.27;;
17921;SDS011;9086;50.966;3.144;2023-03-21T11:02:46;7.10;;;3.73;;
17921;SDS011;9086;50.966;3.144;2023-03-21T11:07:42;7.77;;;4.27;;
17921;SDS011;9086;50.966;3.144;2023-03-21T11:10:13;6.33;;;3.83;;
17921;SDS011;9086;50.966;3.144;2023-03-21T11:12:40;8.03;;;3.77;;
17921;SDS011;9086;50.966;3.144;2023-03-21T11:17:51;8.43;;;3.70;;
17921;SDS011;9086;50.966;3.144;2023-03-21T11:20:17;7.13;;;3.77;;
17921;SDS011;9086;50.966;3.144;2023-03-21T11:22:44;7.53;;;4.13;;
17921;SDS011;9086;50.966;3.144;2023-03-21T11:27:50;7.10;;;3.87;;
17921;SDS011;9086;50.966;3.144;2023-03-21T11:30:19;5.73;;;4.47;;
17921;SDS011;9086;50.966;3.144;2023-03-21T11:32:45;5.43;;;4.00;;
17921;SDS011;9086;50.966;3.144;2023-03-21T11:35:19;10.77;;;3.80;;
17921;SDS011;9086;50.966;3.144;2023-03-21T11:37:50;8.63;;;4.00;;
17921;SDS011;9086;50.966;3.144;2023-03-21T11:42:48;8.97;;;4.37;;
17921;SDS011;9086;50.966;3.144;2023-03-21T11:47:41;5.03;;;3.90;;
17921;SDS011;9086;50.966;3.144;2023-03-21T11:50:24;10.57;;;4.87;;
17921;SDS011;9086;50.966;3.144;2023-03-21T12:08:01;8.27;;;4.87;;
17921;SDS011;9086;50.966;3.144;2023-03-21T12:20:32;4.80;;;3.93;;
17921;SDS011;9086;50.966;3.144;2023-03-21T12:23:18;5.27;;;3.80;;
17921;SDS011;9086;50.966;3.144;2023-03-21T12:33:27;4.17;;;2.43;;
17921;SDS011;9086;50.966;3.144;2023-03-21T12:36:06;4.23;;;2.20;;
17921;SDS011;9086;50.966;3.144;2023-03-21T12:43:49;2.17;;;1.73;;
17921;SDS011;9086;50.966;3.144;2023-03-21T12:46:21;3.07;;;2.00;;
17921;SDS011;9086;50.966;3.144;2023-03-21T12:48:53;2.43;;;2.00;;
17921;SDS011;9086;50.966;3.144;2023-03-21T12:51:22;1.67;;;1.57;;
17921;SDS011;9086;50.966;3.144;2023-03-21T12:54:04;1.80;;;1.70;;
17921;SDS011;9086;50.966;3.144;2023-03-21T12:59:10;1.70;;;1.60;;
17921;SDS011;9086;50.966;3.144;2023-03-21T13:01:40;2.60;;;1.80;;
17921;SDS011;9086;50.966;3.144;2023-03-21T13:04:20;1.90;;;1.70;;
17921;SDS011;9086;50.966;3.144;2023-03-21T13:06:52;1.90;;;1.80;;
17921;SDS011;9086;50.966;3.144;2023-03-21T13:09:36;1.83;;;1.40;;
17921;SDS011;9086;50.966;3.144;2023-03-21T13:12:05;1.60;;;1.30;;
17921;SDS011;9086;50.966;3.144;2023-03-21T13:14:37;2.20;;;1.50;;
17921;SDS011;9086;50.966;3.144;2023-03-21T13:17:09;2.77;;;1.70;;
17921;SDS011;9086;50.966;3.144;2023-03-21T13:19:42;2.20;;;2.00;;
17921;SDS011;9086;50.966;3.144;2023-03-21T13:24:41;3.43;;;1.90;;
17921;SDS011;9086;50.966;3.144;2023-03-21T13:30:02;5.47;;;1.97;;
17921;SDS011;9086;50.966;3.144;2023-03-21T13:34:59;5.60;;;2.03;;
17921;SDS011;9086;50.966;3.144;2023-03-21T13:37:33;3.43;;;2.20;;
17921;SDS011;9086;50.966;3.144;2023-03-21T13:40:01;3.27;;;1.80;;
17921;SDS011;9086;50.966;3.144;2023-03-21T13:42:33;2.00;;;1.70;;
17921;SDS011;9086;50.966;3.144;2023-03-21T13:44:59;3.13;;;1.90;;
17921;SDS011;9086;50.966;3.144;2023-03-21T13:55:27;5.00;;;1.80;;
17921;SDS011;9086;50.966;3.144;2023-03-21T13:57:53;2.90;;;1.90;;
17921;SDS011;9086;50.966;3.144;2023-03-21T14:00:23;2.50;;;1.63;;
17921;SDS011;9086;50.966;3.144;2023-03-21T14:03:00;4.53;;;1.70;;
17921;SDS011;9086;50.966;3.144;2023-03-21T14:05:30;1.97;;;1.70;;
17921;SDS011;9086;50.966;3.144;2023-03-21T14:07:59;3.80;;;1.70;;
17921;SDS011;9086;50.966;3.144;2023-03-21T14:12:59;2.57;;;1.80;;
17921;SDS011;9086;50.966;3.144;2023-03-21T14:15:39;3.13;;;1.47;;
17921;SDS011;9086;50.966;3.144;2023-03-21T14:18:06;3.43;;;1.53;;
17921;SDS011;9086;50.966;3.144;2023-03-21T14:20:33;3.40;;;1.37;;
17921;SDS011;9086;50.966;3.144;2023-03-21T14:23:03;2.87;;;1.50;;
17921;SDS011;9086;50.966;3.144;2023-03-21T14:25:35;2.63;;;1.60;;
17921;SDS011;9086;50.966;3.144;2023-03-21T14:28:03;3.53;;;1.90;;
17921;SDS011;9086;50.966;3.144;2023-03-21T14:30:37;1.87;;;1.47;;
17921;SDS011;9086;50.966;3.144;2023-03-21T14:35:45;4.63;;;1.90;;
17921;SDS011;9086;50.966;3.144;2023-03-21T14:38:18;3.90;;;1.87;;
17921;SDS011;9086;50.966;3.144;2023-03-21T14:40:46;5.37;;;1.80;;
17921;SDS011;9086;50.966;3.144;2023-03-21T14:43:12;2.23;;;1.10;;
17921;SDS011;9086;50.966;3.144;2023-03-21T14:45:38;1.37;;;0.90;;
17921;SDS011;9086;50.966;3.144;2023-03-21T14:48:07;4.00;;;1.10;;
17921;SDS011;9086;50.966;3.144;2023-03-21T14:53:19;2.87;;;1.17;;
17921;SDS011;9086;50.966;3.144;2023-03-21T14:55:46;3.00;;;0.83;;
17921;SDS011;9086;50.966;3.144;2023-03-21T14:58:14;3.10;;;1.40;;
17921;SDS011;9086;50.966;3.144;2023-03-21T15:00:41;1.90;;;1.00;;
17921;SDS011;9086;50.966;3.144;2023-03-21T15:03:09;2.53;;;1.23;;
17921;SDS011;9086;50.966;3.144;2023-03-21T15:05:36;2.53;;;1.37;;
17921;SDS011;9086;50.966;3.144;2023-03-21T15:08:13;3.00;;;1.40;;
17921;SDS011;9086;50.966;3.144;2023-03-21T15:10:40;2.80;;;1.70;;
17921;SDS011;9086;50.966;3.144;2023-03-21T15:13:17;4.77;;;1.60;;
17921;SDS011;9086;50.966;3.144;2023-03-21T15:15:43;2.57;;;1.57;;
17921;SDS011;9086;50.966;3.144;2023-03-21T15:18:13;3.87;;;1.50;;
17921;SDS011;9086;50.966;3.144;2023-03-21T15:20:39;2.00;;;1.90;;
17921;SDS011;9086;50.966;3.144;2023-03-21T15:23:07;3.80;;;1.60;;
17921;SDS011;9086;50.966;3.144;2023-03-21T15:25:35;2.03;;;1.40;;
17921;SDS011;9086;50.966;3.144;2023-03-21T15:28:01;2.03;;;1.80;;
17921;SDS011;9086;50.966;3.144;2023-03-21T15:30:29;2.63;;;1.63;;
17921;SDS011;9086;50.966;3.144;2023-03-21T15:32:56;2.93;;;1.20;;
17921;SDS011;9086;50.966;3.144;2023-03-21T15:35:31;2.57;;;1.67;;
17921;SDS011;9086;50.966;3.144;2023-03-21T15:37:58;3.67;;;1.60;;
17921;SDS011;9086;50.966;3.144;2023-03-21T15:40:26;2.07;;;1.80;;
17921;SDS011;9086;50.966;3.144;2023-03-21T15:45:31;3.50;;;1.80;;
17921;SDS011;9086;50.966;3.144;2023-03-21T15:47:59;4.00;;;1.60;;
17921;SDS011;9086;50.966;3.144;2023-03-21T15:52:53;3.20;;;1.80;;
17921;SDS011;9086;50.966;3.144;2023-03-21T15:57:50;2.83;;;1.53;;
17921;SDS011;9086;50.966;3.144;2023-03-21T16:00:22;3.57;;;2.00;;
17921;SDS011;9086;50.966;3.144;2023-03-21T16:02:57;3.30;;;1.93;;
17921;SDS011;9086;50.966;3.144;2023-03-21T16:07:50;3.93;;;2.00;;
17921;SDS011;9086;50.966;3.144;2023-03-21T16:10:36;4.73;;;2.70;;
17921;SDS011;9086;50.966;3.144;2023-03-21T16:13:02;3.07;;;1.80;;
17921;SDS011;9086;50.966;3.144;2023-03-21T16:15:29;2.67;;;1.93;;
17921;SDS011;9086;50.966;3.144;2023-03-21T16:17:56;2.20;;;1.20;;
17921;SDS011;9086;50.966;3.144;2023-03-21T16:20:23;1.93;;;1.10;;
17921;SDS011;9086;50.966;3.144;2023-03-21T16:22:49;1.93;;;0.93;;
17921;SDS011;9086;50.966;3.144;2023-03-21T16:25:16;1.77;;;1.00;;
17921;SDS011;9086;50.966;3.144;2023-03-21T16:27:42;2.97;;;1.43;;
17921;SDS011;9086;50.966;3.144;2023-03-21T16:30:10;2.67;;;1.20;;
17921;SDS011;9086;50.966;3.144;2023-03-21T16:32:36;1.53;;;0.90;;
17921;SDS011;9086;50.966;3.144;2023-03-21T16:35:02;1.00;;;0.90;;
17921;SDS011;9086;50.966;3.144;2023-03-21T16:37:28;2.40;;;1.70;;
17921;SDS011;9086;50.966;3.144;2023-03-21T16:39:54;2.83;;;1.10;;
17921;SDS011;9086;50.966;3.144;2023-03-21T16:42:20;3.17;;;1.37;;
17921;SDS011;9086;50.966;3.144;2023-03-21T16:44:46;4.50;;;1.20;;
17921;SDS011;9086;50.966;3.144;2023-03-21T16:47:16;3.17;;;1.30;;
17921;SDS011;9086;50.966;3.144;2023-03-21T16:49:43;1.63;;;0.90;;
17921;SDS011;9086;50.966;3.144;2023-03-21T16:52:10;3.13;;;1.27;;
17921;SDS011;9086;50.966;3.144;2023-03-21T16:54:37;2.87;;;1.40;;
17921;SDS011;9086;50.966;3.144;2023-03-21T16:57:03;4.10;;;1.40;;
17921;SDS011;9086;50.966;3.144;2023-03-21T16:59:31;1.93;;;1.03;;
17921;SDS011;9086;50.966;3.144;2023-03-21T17:01:57;4.00;;;1.30;;
17921;SDS011;9086;50.966;3.144;2023-03-21T17:04:23;4.10;;;1.43;;
17921;SDS011;9086;50.966;3.144;2023-03-21T17:06:50;1.87;;;1.00;;
17921;SDS011;9086;50.966;3.144;2023-03-21T17:09:18;7.30;;;2.57;;